Time;durP1;ratioP1;P1;durP2;ratioP2;P2;SDS_P1;SDS_P2;PMS_P1;PMS_P2;Temp;Humidity;BMP_temperature;BMP_pressure;BME280_temperature;BME280_humidity;BME280_pressure;Samples;Min_cycle;Max_cycle;Signal;HPM_P1;HPM_P2
2021/10/11 00:00:41;;;;;;;2.78;2.35;;;20.40;48.60;;;24.32;32.35;101985.69;5113585;28;20153;-9
2021/10/11 00:03:07;;;;;;;2.22;2.03;;;20.40;48.50;;;24.33;32.53;101985.59;5113575;28;20436;-9
2021/10/11 00:05:32;;;;;;;2.28;1.95;;;20.30;48.60;;;24.30;32.32;101980.44;5113480;28;20054;-9
2021/10/11 00:07:58;;;;;;;2.50;2.15;;;20.20;48.80;;;24.31;32.19;101979.50;5095753;28;20066;-9
2021/10/11 00:10:24;;;;;;;2.80;2.50;;;20.20;48.70;;;24.31;32.22;101983.97;5113529;28;20047;-9
2021/10/11 00:12:54;;;;;;;2.20;2.00;;;20.20;48.70;;;24.31;32.41;101981.31;5113819;28;20052;-9
2021/10/11 00:15:29;;;;;;;1.97;1.87;;;20.30;48.70;;;24.33;32.22;101980.25;5113718;28;20130;-9
2021/10/11 00:17:56;;;;;;;2.42;2.22;;;20.30;49.30;;;24.33;32.41;101984.75;5113231;28;20868;-9
2021/10/11 00:20:22;;;;;;;2.35;2.15;;;20.30;48.60;;;24.29;32.43;101986.75;5113259;28;20073;-9
2021/10/11 00:22:50;;;;;;;2.60;2.22;;;20.30;48.70;;;24.29;32.21;101981.41;5113981;28;20475;-8
2021/10/11 00:25:17;;;;;;;2.63;2.42;;;20.30;48.70;;;24.27;32.44;101988.63;5113284;28;20046;-9
2021/10/11 00:27:43;;;;;;;2.13;1.92;;;20.20;48.90;;;24.28;32.35;101987.69;5113136;28;20078;-10
2021/10/11 00:30:12;;;;;;;2.30;2.10;;;20.20;48.80;;;24.29;32.17;101983.19;5113149;28;20131;-9
2021/10/11 00:32:37;;;;;;;2.58;2.38;;;20.20;49.00;;;24.29;32.24;101991.19;5113739;28;20044;-9
2021/10/11 00:35:04;;;;;;;2.55;2.35;;;20.20;48.90;;;24.29;32.21;101989.41;5113603;28;20050;-9
2021/10/11 00:37:30;;;;;;;2.20;2.00;;;20.30;48.90;;;24.29;32.44;101986.75;5092366;28;20201;-9
2021/10/11 00:39:56;;;;;;;2.35;2.15;;;20.30;48.80;;;24.28;32.44;101987.69;5113119;28;20052;-9
2021/10/11 00:42:22;;;;;;;2.33;2.13;;;20.30;48.80;;;24.29;32.47;101980.50;5112845;28;20055;-9
2021/10/11 00:44:48;;;;;;;2.40;2.20;;;20.30;48.70;;;24.30;32.33;101979.56;5112976;28;20066;-9
2021/10/11 00:47:13;;;;;;;3.05;2.45;;;20.30;48.60;;;24.31;32.20;101986.66;5112871;28;20050;-9
2021/10/11 00:49:39;;;;;;;2.47;2.20;;;20.40;48.60;;;24.30;32.31;101971.56;5113030;28;20043;-9
2021/10/11 00:52:05;;;;;;;2.22;2.03;;;20.30;48.70;;;24.29;32.41;101970.72;5113230;28;20050;-9
2021/10/11 00:54:32;;;;;;;2.92;2.33;;;20.30;48.60;;;24.29;32.25;101972.50;5112624;28;20044;-9
2021/10/11 00:56:58;;;;;;;2.50;2.22;;;20.30;48.50;;;24.32;32.49;101977.66;5112636;28;20071;-9
2021/10/11 00:59:24;;;;;;;2.60;2.28;;;20.30;48.60;;;24.31;32.32;101973.28;5113191;28;20113;-9
2021/10/11 01:01:49;;;;;;;2.40;2.20;;;20.30;48.50;;;24.30;32.26;101966.22;5112791;28;20059;-9
2021/10/11 01:04:16;;;;;;;2.25;2.05;;;20.30;48.60;;;24.28;32.33;101966.31;5112788;28;20123;-9
2021/10/11 01:06:44;;;;;;;2.80;2.30;;;20.30;48.60;;;24.31;32.37;101965.28;5112819;28;20896;-9
2021/10/11 01:09:11;;;;;;;2.75;2.10;;;20.30;48.50;;;24.31;32.38;101970.63;5113197;28;20560;-9
2021/10/11 01:11:38;;;;;;;2.95;2.65;;;20.40;48.60;;;24.32;32.47;101966.97;5113046;28;20134;-9
2021/10/11 01:14:05;;;;;;;2.72;2.33;;;20.30;48.60;;;24.31;32.15;101957.25;5112683;28;20055;-9
2021/10/11 01:16:32;;;;;;;2.40;2.20;;;20.30;48.50;;;24.32;32.43;101959.81;5112731;28;20082;-9
2021/10/11 01:18:58;;;;;;;2.60;2.25;;;20.30;48.50;;;24.32;32.12;101964.31;5112501;28;20501;-9
2021/10/11 01:21:24;;;;;;;2.53;2.33;;;20.40;48.50;;;24.31;32.37;101949.25;5112520;28;20051;-9
2021/10/11 01:23:52;;;;;;;2.60;2.13;;;20.40;48.60;;;24.33;32.36;101952.66;5112525;28;20052;-9
2021/10/11 01:26:17;;;;;;;2.67;2.47;;;20.30;48.60;;;24.31;32.21;101947.41;5112510;28;20054;-9
2021/10/11 01:28:43;;;;;;;2.15;1.92;;;20.30;48.50;;;24.30;32.11;101945.69;5112500;28;20044;-9
2021/10/11 01:31:09;;;;;;;2.67;2.47;;;20.30;48.60;;;24.32;32.26;101949.13;5112502;28;20047;-9
2021/10/11 01:33:35;;;;;;;2.30;2.10;;;20.30;48.50;;;24.33;32.43;101953.53;5112400;28;20122;-9
2021/10/11 01:36:00;;;;;;;2.00;1.80;;;20.30;48.60;;;24.32;32.31;101954.47;5112251;28;20139;-9
2021/10/11 01:38:26;;;;;;;2.00;1.83;;;20.30;48.70;;;24.34;32.11;101949.03;5112553;28;20047;-9
2021/10/11 01:40:52;;;;;;;2.67;2.40;;;20.40;48.50;;;24.31;32.12;101941.22;5112197;28;20040;-9
2021/10/11 01:43:18;;;;;;;2.20;2.00;;;20.40;48.40;;;24.33;32.22;101942.84;5112264;28;20054;-9
2021/10/11 01:45:49;;;;;;;2.00;1.83;;;20.40;48.40;;;24.31;32.15;101939.41;5112522;28;20404;-9
2021/10/11 01:48:15;;;;;;;2.38;2.00;;;20.40;48.50;;;24.32;32.21;101940.25;5094031;28;20044;-9
2021/10/11 01:50:41;;;;;;;2.42;2.22;;;20.30;48.50;;;24.33;32.26;101947.31;5112604;28;20054;-8
2021/10/11 01:53:07;;;;;;;2.35;2.15;;;20.30;48.50;;;24.30;32.33;101940.34;5112099;28;20388;-8
2021/10/11 01:55:33;;;;;;;2.30;2.10;;;20.40;48.30;;;24.32;32.13;101938.44;5113789;28;20051;-9
2021/10/11 01:57:59;;;;;;;2.83;2.20;;;20.50;48.20;;;24.31;32.14;101935.88;5116059;28;20055;-9
2021/10/11 02:00:26;;;;;;;2.55;2.25;;;20.50;48.10;;;24.35;32.20;101948.94;5115369;28;20052;-9
2021/10/11 02:02:53;;;;;;;2.60;1.98;;;20.60;48.00;;;24.32;32.24;101941.09;5115524;28;20059;-9
2021/10/11 02:05:20;;;;;;;2.30;2.10;;;20.60;47.90;;;24.36;32.11;101947.16;5115523;28;20503;-9
2021/10/11 02:07:47;;;;;;;2.28;2.08;;;20.50;48.00;;;24.33;32.18;101942.84;5115719;28;20054;-9
2021/10/11 02:10:13;;;;;;;2.10;1.90;;;20.50;48.20;;;24.33;32.14;101936.63;5115364;28;20407;-9
2021/10/11 02:12:39;;;;;;;2.55;2.35;;;20.40;48.20;;;24.33;32.24;101929.47;5115104;28;20081;-9
2021/10/11 02:15:06;;;;;;;2.90;2.42;;;20.40;48.30;;;24.32;32.21;101924.22;5115204;28;20047;-9
2021/10/11 02:17:34;;;;;;;2.20;2.00;;;20.40;48.30;;;24.36;32.26;101931.97;5115305;28;20388;-9
2021/10/11 02:20:00;;;;;;;2.47;2.17;;;20.50;48.20;;;24.36;32.23;101939.97;5115269;28;20434;-9
2021/10/11 02:22:26;;;;;;;2.50;2.30;;;20.50;48.00;;;24.37;32.22;101930.13;5115217;28;20051;-9
2021/10/11 02:24:52;;;;;;;2.50;2.22;;;20.50;48.00;;;24.34;32.28;101928.53;5115103;28;20116;-8
2021/10/11 02:27:18;;;;;;;2.08;1.85;;;20.60;48.00;;;24.33;32.13;101928.63;5115487;28;20399;-9
2021/10/11 02:29:43;;;;;;;2.30;2.10;;;20.50;48.20;;;24.37;32.01;101927.47;5114852;28;20059;-9
2021/10/11 02:32:09;;;;;;;2.63;2.30;;;20.40;48.30;;;24.34;32.24;101916.94;5115727;28;20093;-9
2021/10/11 02:34:35;;;;;;;2.25;2.05;;;20.40;48.50;;;24.34;32.21;101917.84;5114975;28;20047;-9
2021/10/11 02:37:01;;;;;;;2.30;2.10;;;20.40;48.40;;;24.36;31.96;101923.94;5115300;28;20206;-8
2021/10/11 02:39:26;;;;;;;2.95;2.63;;;20.30;48.50;;;24.33;32.31;101915.25;5114989;28;20557;-9
2021/10/11 02:41:52;;;;;;;2.28;2.08;;;20.30;48.70;;;24.31;32.17;101906.47;5114963;28;20391;-9
2021/10/11 02:44:18;;;;;;;2.50;2.28;;;20.30;48.70;;;24.32;32.23;101916.19;5115061;28;20337;-9
2021/10/11 02:46:44;;;;;;;2.40;2.20;;;20.20;48.60;;;24.31;32.21;101907.31;5114912;28;20067;-9
2021/10/11 02:49:09;;;;;;;2.40;2.20;;;20.20;48.70;;;24.34;32.22;101903.59;5096607;28;20192;-9
2021/10/11 02:51:35;;;;;;;3.00;2.60;;;20.30;48.70;;;24.34;32.23;101904.47;5115396;28;20070;-9
2021/10/11 02:54:03;;;;;;;2.58;2.20;;;20.20;48.60;;;24.33;32.34;101904.56;5114611;28;20051;-8
2021/10/11 02:56:28;;;;;;;3.08;2.78;;;20.30;48.70;;;24.38;32.21;101907.81;5115044;28;20423;-9
2021/10/11 02:58:54;;;;;;;3.00;2.70;;;20.30;48.60;;;24.39;32.16;101917.53;5114905;28;20542;-9
2021/10/11 03:01:20;;;;;;;2.25;2.05;;;20.30;48.60;;;24.39;32.21;101912.19;5114676;28;20105;-9
2021/10/11 03:03:45;;;;;;;2.47;2.28;;;20.30;48.50;;;24.40;32.37;101914.78;5114849;28;20050;-9
2021/10/11 03:06:11;;;;;;;2.80;2.53;;;20.40;48.50;;;24.42;32.22;101915.56;5113203;28;20063;-9
2021/10/11 03:08:37;;;;;;;2.38;2.17;;;20.40;49.00;;;24.43;32.27;101913.75;5114298;28;20043;-9
2021/10/11 03:11:03;;;;;;;2.60;2.28;;;20.40;48.40;;;24.45;32.24;101913.66;5114769;28;20054;-9
2021/10/11 03:13:30;;;;;;;2.58;2.38;;;20.50;48.40;;;24.49;32.34;101909.81;5114409;28;20042;-9
2021/10/11 03:15:56;;;;;;;2.47;2.28;;;20.50;48.30;;;24.49;32.17;101905.38;5114307;28;20096;-9
2021/10/11 03:18:22;;;;;;;2.47;2.28;;;20.50;48.30;;;24.54;32.29;101908.63;5114370;28;20480;-9
2021/10/11 03:20:49;;;;;;;2.40;2.20;;;20.60;48.20;;;24.56;32.03;101909.41;5114017;28;20047;-9
2021/10/11 03:23:15;;;;;;;2.80;2.60;;;20.60;48.20;;;24.58;32.25;101903.97;5114163;28;20044;-9
2021/10/11 03:25:41;;;;;;;2.47;2.28;;;20.60;48.10;;;24.63;32.10;101901.88;5113987;28;20403;-9
2021/10/11 03:28:06;;;;;;;2.78;2.25;;;20.70;48.10;;;24.64;32.18;101902.72;5114134;28;20055;-9
2021/10/11 03:30:32;;;;;;;2.60;2.40;;;20.70;48.00;;;24.69;32.13;101900.63;5114039;28;20047;-9
2021/10/11 03:32:59;;;;;;;3.55;2.42;;;20.70;48.00;;;24.71;32.14;101898.75;5114412;28;20126;-9
2021/10/11 03:35:25;;;;;;;2.20;2.00;;;20.70;47.90;;;24.69;32.13;101887.25;5114004;28;20047;-9
2021/10/11 03:37:51;;;;;;;2.58;2.28;;;20.70;47.90;;;24.72;32.10;101885.25;5114201;28;20061;-9
2021/10/11 03:40:18;;;;;;;2.22;2.03;;;20.70;47.90;;;24.76;32.04;101896.63;5114201;28;20134;-9
2021/10/11 03:42:47;;;;;;;3.47;2.53;;;20.70;47.80;;;24.77;31.96;101893.00;5096074;28;20065;-9
2021/10/11 03:45:13;;;;;;;2.60;2.33;;;20.70;47.80;;;24.78;31.83;101886.69;5114124;28;20117;-9
2021/10/11 03:47:39;;;;;;;2.47;2.28;;;20.80;47.80;;;24.77;31.74;101880.50;5113801;28;20059;-9
2021/10/11 03:50:07;;;;;;;2.65;2.45;;;20.80;47.80;;;24.77;31.73;101885.84;5113691;28;20048;-9
2021/10/11 03:52:33;;;;;;;2.35;2.15;;;20.80;47.80;;;24.77;31.80;101876.94;5114023;28;20105;-9
2021/10/11 03:54:59;;;;;;;2.38;2.17;;;20.80;48.40;;;24.82;31.66;101884.69;5113682;28;20134;-9
2021/10/11 03:57:24;;;;;;;2.30;2.10;;;20.70;47.80;;;24.82;31.93;101885.53;5113682;28;20047;-9
2021/10/11 03:59:50;;;;;;;2.50;2.30;;;20.70;47.80;;;24.81;31.70;101881.16;5114161;28;20130;-9
2021/10/11 04:02:16;;;;;;;2.50;2.30;;;20.70;47.80;;;24.78;31.82;101878.66;5113654;28;20408;-9
2021/10/11 04:04:42;;;;;;;2.55;2.35;;;20.70;47.80;;;24.81;31.79;101881.16;5113656;28;20054;-9
2021/10/11 04:07:11;;;;;;;2.50;2.30;;;20.70;47.90;;;24.79;31.74;101877.69;5114170;28;20058;-9
2021/10/11 04:09:38;;;;;;;2.50;2.30;;;20.70;47.80;;;24.80;31.63;101884.78;5113473;28;20075;-9
2021/10/11 04:12:21;;;;;;;2.85;2.50;;;20.70;48.10;;;24.80;31.61;101887.44;5113353;28;20051;-8
2021/10/11 04:14:48;;;;;;;2.40;2.20;;;20.70;47.80;;;24.76;31.76;101884.13;5113401;28;20089;-9
2021/10/11 04:17:14;;;;;;;2.78;2.53;;;20.90;47.60;;;24.74;31.59;101879.81;5113010;28;20048;-9
2021/10/11 04:19:40;;;;;;;2.40;2.20;;;20.90;47.40;;;24.77;31.79;101879.63;5113350;28;20083;-8
2021/10/11 04:22:06;;;;;;;2.50;2.30;;;20.90;47.50;;;24.75;31.80;101877.03;5113398;28;20075;-9
2021/10/11 04:24:32;;;;;;;2.83;2.58;;;20.80;47.60;;;24.80;31.61;101878.59;5113350;28;20479;-9
2021/10/11 04:26:58;;;;;;;3.17;2.53;;;20.90;47.50;;;24.77;31.73;101883.16;5113226;28;20060;-9
2021/10/11 04:29:24;;;;;;;2.30;2.10;;;20.90;47.30;;;24.74;31.67;101872.66;5113332;28;20061;-9
2021/10/11 04:31:50;;;;;;;2.42;2.22;;;20.90;47.20;;;24.75;31.79;101878.84;5113261;28;20487;-9
2021/10/11 04:34:15;;;;;;;2.28;1.80;;;20.90;47.20;;;24.73;31.72;101876.28;5113127;28;20395;-9
2021/10/11 04:36:41;;;;;;;2.40;2.20;;;20.90;47.20;;;24.76;31.62;101888.63;5113641;28;20048;-9
2021/10/11 04:39:07;;;;;;;2.75;2.53;;;21.00;47.20;;;24.75;31.81;101881.53;5112995;28;20040;-9
2021/10/11 04:41:33;;;;;;;2.65;2.25;;;20.90;47.20;;;24.73;31.74;101895.00;5113710;28;20483;-9
2021/10/11 04:43:58;;;;;;;2.30;2.10;;;20.90;47.30;;;24.72;31.78;101900.44;5112989;28;20044;-9
2021/10/11 04:46:24;;;;;;;2.92;2.63;;;20.80;47.60;;;24.72;31.78;101911.13;5112886;28;20052;-9
2021/10/11 04:48:50;;;;;;;2.53;2.33;;;20.70;47.80;;;24.68;31.81;101902.44;5112748;28;20048;-9
2021/10/11 04:51:16;;;;;;;2.75;2.50;;;20.60;47.90;;;24.72;31.51;101909.31;5113058;28;20051;-9
2021/10/11 04:53:41;;;;;;;2.45;2.10;;;20.60;48.00;;;24.71;31.71;101912.09;5113103;28;20043;-9
2021/10/11 04:56:07;;;;;;;2.40;2.20;;;20.50;48.00;;;24.67;31.59;101907.88;5113443;28;20044;-9
2021/10/11 04:58:33;;;;;;;2.38;2.17;;;20.60;48.10;;;24.70;31.63;101913.91;5112912;28;20040;-9
2021/10/11 05:00:59;;;;;;;2.60;2.40;;;20.60;48.10;;;24.71;31.57;101915.63;5113400;28;20044;-8
2021/10/11 05:03:25;;;;;;;2.33;2.13;;;20.60;48.10;;;24.68;31.76;101906.94;5112736;28;20117;-9
2021/10/11 05:05:50;;;;;;;3.05;2.20;;;20.60;48.10;;;24.71;31.78;101906.75;5112723;28;20050;-9
2021/10/11 05:08:16;;;;;;;2.97;2.40;;;20.60;48.10;;;24.70;31.82;101905.03;5110732;28;20051;-9
2021/10/11 05:10:42;;;;;;;2.70;2.50;;;20.60;48.10;;;24.71;31.86;101910.28;5112669;28;20056;-9
2021/10/11 05:13:08;;;;;;;4.15;2.42;;;20.60;48.10;;;24.69;31.73;101896.16;5112871;28;20051;-8
2021/10/11 05:15:33;;;;;;;2.95;2.75;;;20.60;48.10;;;24.72;31.86;101901.28;5112785;28;20055;-8
2021/10/11 05:17:59;;;;;;;2.47;2.25;;;20.60;48.00;;;24.73;31.67;101910.19;5112918;28;20055;-9
2021/10/11 05:20:26;;;;;;;2.85;2.35;;;20.60;48.10;;;24.73;31.88;101905.69;5112482;28;20127;-9
2021/10/11 05:22:53;;;;;;;2.63;2.42;;;20.60;48.00;;;24.71;31.97;101912.97;5112413;28;20070;-9
2021/10/11 05:25:20;;;;;;;2.70;2.50;;;20.60;48.00;;;24.71;31.64;101904.09;5112452;28;20055;-9
2021/10/11 05:27:47;;;;;;;2.40;2.20;;;20.60;48.00;;;24.73;31.75;101910.19;5112412;28;20048;-9
2021/10/11 05:30:13;;;;;;;2.50;2.30;;;20.60;48.00;;;24.76;31.71;101910.84;5114060;28;20047;-8
2021/10/11 05:32:38;;;;;;;3.05;2.75;;;20.70;48.10;;;24.75;31.67;101906.44;5116159;28;20063;-9
2021/10/11 05:35:06;;;;;;;2.60;2.40;;;20.70;48.00;;;24.75;31.73;101901.09;5115871;28;20047;-9
2021/10/11 05:37:31;;;;;;;2.17;1.98;;;20.60;47.90;;;24.77;31.73;101906.38;5115928;28;20419;-9
2021/10/11 05:39:58;;;;;;;2.75;2.50;;;20.70;48.00;;;24.75;31.91;101898.44;5095855;28;20071;-9
2021/10/11 05:42:24;;;;;;;2.63;2.35;;;20.60;47.90;;;24.76;31.71;101902.84;5095589;28;20059;-9
2021/10/11 05:44:49;;;;;;;2.75;2.55;;;20.70;48.00;;;24.77;31.71;101898.34;5115978;28;20473;-9
2021/10/11 05:47:15;;;;;;;3.08;2.50;;;20.70;47.90;;;24.82;31.80;101911.44;5116329;28;20062;-9
2021/10/11 05:49:41;;;;;;;2.95;2.65;;;20.70;47.90;;;24.82;31.87;101911.44;5115903;28;20093;-9
2021/10/11 05:52:07;;;;;;;3.15;2.50;;;20.70;47.90;;;24.78;31.71;101906.28;5116164;28;20108;-9
2021/10/11 05:54:32;;;;;;;2.53;2.33;;;20.70;47.90;;;24.84;31.68;101906.84;5115477;28;20043;-9
2021/10/11 05:56:58;;;;;;;2.40;2.20;;;20.70;47.80;;;24.82;31.76;101909.59;5115591;28;20055;-8
2021/10/11 05:59:24;;;;;;;3.05;2.70;;;20.80;47.80;;;24.85;31.84;101916.59;5115278;28;20047;-9
2021/10/11 06:01:50;;;;;;;2.53;2.33;;;20.70;47.80;;;24.85;31.83;101919.28;5097295;28;20056;-10
2021/10/11 06:04:16;;;;;;;2.50;2.30;;;20.70;47.80;;;24.84;31.86;101913.06;5097202;28;20048;-8
2021/10/11 06:06:42;;;;;;;3.55;2.63;;;20.80;47.80;;;24.83;31.83;101919.38;5115737;28;20044;-8
2021/10/11 06:09:08;;;;;;;2.60;2.40;;;20.80;47.80;;;24.86;31.62;101913.84;5115220;28;20506;-8
2021/10/11 06:11:33;;;;;;;2.55;2.35;;;20.80;47.80;;;24.86;31.84;101918.28;5115279;28;20044;-9
2021/10/11 06:13:59;;;;;;;2.50;2.30;;;20.80;47.80;;;24.85;31.59;101912.09;5115489;28;20055;-9
2021/10/11 06:16:25;;;;;;;2.60;2.40;;;20.80;47.70;;;24.87;31.72;101917.34;5115071;28;20138;-9
2021/10/11 06:18:51;;;;;;;2.78;2.40;;;20.80;47.70;;;24.86;31.64;101919.19;5115205;28;20052;-10
2021/10/11 06:21:17;;;;;;;2.70;2.40;;;20.80;47.70;;;24.87;31.65;101912.00;5115211;28;20044;-10
2021/10/11 06:23:45;;;;;;;2.70;2.50;;;20.80;47.70;;;24.90;31.66;101925.19;5115102;28;20097;-10
2021/10/11 06:26:11;;;;;;;2.83;2.58;;;20.80;47.70;;;24.88;31.49;101917.25;5115417;28;20081;-11
2021/10/11 06:28:37;;;;;;;2.90;2.55;;;20.80;47.70;;;24.91;31.62;101916.22;5114930;28;20440;-11
2021/10/11 06:31:02;;;;;;;3.13;2.60;;;20.80;47.70;;;24.92;31.67;101923.28;5114841;28;20399;-10
2021/10/11 06:33:28;;;;;;;2.78;2.53;;;20.90;47.70;;;24.89;31.52;101919.00;5115489;28;20108;-9
2021/10/11 06:35:54;;;;;;;2.85;2.63;;;20.80;47.70;;;24.89;31.62;101910.97;5114706;28;20043;-9
2021/10/11 06:38:20;;;;;;;2.75;2.55;;;20.80;47.70;;;24.92;31.61;101924.13;5077532;28;20044;-10
2021/10/11 06:40:48;;;;;;;2.53;2.33;;;20.80;47.70;;;24.91;31.51;101919.75;5114584;28;20047;-10
2021/10/11 06:43:14;;;;;;;2.40;2.20;;;20.90;47.70;;;24.92;31.61;101917.94;5114761;28;20073;-9
2021/10/11 06:45:40;;;;;;;2.47;2.20;;;20.90;47.60;;;24.94;31.48;101922.25;5115087;28;20048;-10
2021/10/11 06:48:06;;;;;;;2.40;2.20;;;20.90;47.50;;;24.95;31.59;101928.44;5114820;28;20448;-9
2021/10/11 06:50:32;;;;;;;3.15;2.50;;;21.00;47.50;;;24.96;31.50;101928.34;5114679;28;20059;-10
2021/10/11 06:52:57;;;;;;;2.40;2.20;;;21.00;47.40;;;25.03;31.55;101941.34;5114775;28;20050;-10
2021/10/11 06:55:24;;;;;;;2.60;2.40;;;21.00;47.30;;;25.05;31.42;101944.78;5096283;28;20056;-10
2021/10/11 06:57:51;;;;;;;2.53;2.30;;;21.00;47.30;;;25.07;31.48;101942.88;5114595;28;20507;-10
2021/10/11 07:00:18;;;;;;;3.38;2.60;;;21.00;47.20;;;25.09;31.47;101948.97;5114443;28;20059;-17
2021/10/11 07:02:44;;;;;;;3.28;2.90;;;21.10;47.10;;;25.13;31.45;101953.19;5114531;28;20047;-10
2021/10/11 07:05:10;;;;;;;3.00;2.70;;;21.20;47.00;;;25.14;31.50;101944.19;5114607;28;20502;-10
2021/10/11 07:07:40;;;;;;;2.67;2.47;;;21.20;46.90;;;25.18;31.40;101950.25;5114437;28;20054;-10
2021/10/11 07:10:07;;;;;;;3.15;2.85;;;21.30;46.70;;;25.28;31.38;101962.13;5114279;28;20521;-10
2021/10/11 07:12:33;;;;;;;2.70;2.50;;;21.40;46.60;;;25.28;31.36;101949.59;5114501;28;20183;-10
2021/10/11 07:14:59;;;;;;;2.65;2.45;;;21.40;47.00;;;25.32;31.24;101944.91;5114255;28;20476;-10
2021/10/11 07:17:25;;;;;;;2.60;2.40;;;21.50;46.40;;;25.40;31.24;101952.44;5114308;28;20071;-10
2021/10/11 07:19:51;;;;;;;2.85;2.58;;;21.50;46.30;;;25.44;31.03;101952.16;5113964;28;20044;-10
2021/10/11 07:22:18;;;;;;;2.40;2.20;;;21.60;46.20;;;25.48;31.07;101952.81;5093916;28;20081;-10
2021/10/11 07:24:46;;;;;;;2.20;2.00;;;21.60;46.10;;;25.52;31.13;101952.50;5114321;28;20372;-9
2021/10/11 07:27:12;;;;;;;2.67;2.47;;;21.60;45.90;;;25.51;30.90;101950.81;5114148;28;20051;-10
2021/10/11 07:29:38;;;;;;;2.47;2.28;;;21.70;46.00;;;25.57;31.03;101952.22;5113931;28;20047;-10
2021/10/11 07:32:06;;;;;;;2.60;2.40;;;21.70;46.00;;;25.59;30.91;101949.44;5114222;28;20100;-10
2021/10/11 07:34:32;;;;;;;2.58;2.38;;;21.70;45.90;;;25.64;30.60;101958.03;5113790;28;20040;-10
2021/10/11 07:36:59;;;;;;;3.17;2.45;;;21.80;45.90;;;25.64;30.82;101950.88;5096517;28;20081;-10
2021/10/11 07:39:25;;;;;;;3.08;2.78;;;21.80;45.70;;;25.64;30.79;101947.31;5113697;28;20526;-9
2021/10/11 07:41:51;;;;;;;2.35;2.17;;;21.80;45.70;;;25.67;30.85;101950.66;5113932;28;20549;-9
2021/10/11 07:44:17;;;;;;;3.05;2.47;;;21.80;45.70;;;25.70;30.69;101952.28;5113861;28;20051;-9
2021/10/11 07:46:43;;;;;;;2.50;2.30;;;21.80;45.80;;;25.72;30.59;101952.19;5113653;28;20043;-9
2021/10/11 07:49:09;;;;;;;2.60;2.40;;;21.80;45.70;;;25.72;30.86;101955.72;5113477;28;20048;-9
2021/10/11 07:51:36;;;;;;;2.75;2.38;;;21.80;45.70;;;25.70;30.72;101952.28;5113658;28;20100;-9
2021/10/11 07:54:03;;;;;;;2.95;2.63;;;21.80;45.60;;;25.68;30.68;101951.53;5112663;28;20100;-9
2021/10/11 07:56:29;;;;;;;2.85;2.58;;;21.80;45.70;;;25.69;30.49;101954.13;5113937;28;20093;-16
2021/10/11 07:58:54;;;;;;;2.65;2.45;;;21.80;45.80;;;25.68;30.49;101946.19;5113658;28;20483;-10
2021/10/11 08:01:20;;;;;;;2.40;2.17;;;21.80;45.80;;;25.66;30.50;101946.28;5078553;28;20108;-9
2021/10/11 08:03:46;;;;;;;2.65;2.45;;;21.60;45.90;;;25.63;30.56;101941.13;5114018;28;20403;-9
2021/10/11 08:06:12;;;;;;;3.05;2.35;;;21.70;46.00;;;25.64;30.47;101945.53;5113396;28;20432;-9
2021/10/11 08:08:37;;;;;;;2.40;2.20;;;21.70;45.90;;;25.65;30.54;101957.94;5113268;28;20465;-9
2021/10/11 08:11:04;;;;;;;2.42;2.10;;;21.70;45.90;;;25.64;30.54;101950.88;5113412;28;20048;-9
2021/10/11 08:13:30;;;;;;;4.70;2.92;;;21.70;46.00;;;25.61;30.60;101952.88;5113274;28;20162;-9
2021/10/11 08:15:56;;;;;;;2.90;2.60;;;21.60;45.90;;;25.61;30.70;101951.06;5113325;28;20043;-9
2021/10/11 08:18:23;;;;;;;2.70;2.50;;;21.60;46.00;;;25.59;30.59;101958.31;5113160;28;20063;-9
2021/10/11 08:20:50;;;;;;;2.80;2.58;;;21.60;46.20;;;25.56;30.65;101955.88;5113221;28;20035;-9
2021/10/11 08:23:16;;;;;;;2.70;2.47;;;21.60;46.10;;;25.55;30.66;101962.16;5112725;28;20051;-10
2021/10/11 08:25:42;;;;;;;2.78;2.58;;;21.60;46.10;;;25.51;30.57;101958.84;5111221;28;20052;-10
2021/10/11 08:28:09;;;;;;;3.22;2.40;;;21.60;46.10;;;25.49;30.72;101960.75;5110723;28;20494;-11
2021/10/11 08:30:35;;;;;;;2.78;2.58;;;21.50;46.30;;;25.50;30.63;101957.09;5111004;28;20460;-12
2021/10/11 08:33:00;;;;;;;3.20;2.70;;;21.40;46.40;;;25.47;30.67;101957.28;5112852;28;20051;-11
2021/10/11 08:35:26;;;;;;;2.80;2.38;;;21.40;46.40;;;25.49;30.73;101958.09;5113200;28;20054;-10
2021/10/11 08:37:52;;;;;;;2.83;2.42;;;21.40;46.40;;;25.49;30.74;101954.53;5113266;28;20528;-10
2021/10/11 08:40:21;;;;;;;2.70;2.50;;;21.50;46.30;;;25.47;30.75;101946.59;5113008;28;20071;-10
2021/10/11 08:42:49;;;;;;;2.60;2.40;;;21.50;46.30;;;25.47;30.74;101954.63;5111181;28;20074;-16
2021/10/11 08:45:17;;;;;;;2.30;2.10;;;21.50;46.20;;;25.49;30.71;101958.09;5113055;28;20048;-11
2021/10/11 08:47:43;;;;;;;2.70;2.50;;;21.60;46.10;;;25.46;30.69;101954.72;5111769;28;20505;-10
2021/10/11 08:50:13;;;;;;;2.88;2.55;;;21.60;46.10;;;25.45;30.58;101961.03;5112091;28;20132;-11
2021/10/11 08:52:39;;;;;;;2.38;2.17;;;21.50;46.20;;;25.47;30.60;101953.78;5113064;28;20142;-10
2021/10/11 08:55:06;;;;;;;2.72;2.40;;;21.60;46.10;;;25.43;30.70;101953.09;5094494;28;20050;-10
2021/10/11 08:57:33;;;;;;;2.88;2.58;;;21.60;46.10;;;25.41;30.66;101951.47;5111475;28;20043;-9
2021/10/11 09:00:16;;;;;;;2.83;2.33;;;21.50;46.10;;;25.41;30.88;101952.34;5110755;28;20086;-13
2021/10/11 09:02:57;;;;;;;2.60;2.40;;;21.60;46.10;;;25.40;30.73;101949.78;5113037;28;20048;-10
2021/10/11 09:05:41;;;;;;;3.38;2.53;;;21.50;46.60;;;25.37;30.79;101955.31;5116239;28;20480;-10
2021/10/11 09:08:08;;;;;;;2.42;2.22;;;21.50;46.10;;;25.37;30.84;101966.03;5115214;28;20134;-10
2021/10/11 09:11:09;;;;;;;2.65;2.38;;;21.50;46.30;;;25.36;30.82;101957.16;5116328;28;20048;-10
2021/10/11 09:13:41;;;;;;;4.20;2.67;;;21.50;46.20;;;25.32;30.77;101958.28;5116247;28;20047;-10
2021/10/11 09:16:40;;;;;;;2.50;2.30;;;21.50;46.30;;;25.28;30.75;101952.25;5098406;28;20123;-9
2021/10/11 09:19:18;;;;;;;2.50;2.30;;;21.40;46.30;;;25.32;31.00;101955.59;5116698;28;20440;-10
2021/10/11 09:21:44;;;;;;;3.22;2.83;;;21.40;46.40;;;25.28;30.83;101954.09;5116375;28;20097;-10
2021/10/11 09:24:28;;;;;;;2.40;2.20;;;21.40;46.40;;;25.30;30.85;101952.16;5116141;28;20051;-11
2021/10/11 09:26:59;;;;;;;3.10;2.70;;;21.40;46.50;;;25.30;30.92;101953.03;5115259;28;20433;-10
2021/10/11 09:29:35;;;;;;;;;;;21.40;46.60;;;25.45;30.83;101951.19;5116671;28;20043;-10
2021/10/11 09:32:10;;;;;;;2.80;2.53;;;21.30;46.70;;;25.32;30.91;101947.56;5116002;28;20309;-9
2021/10/11 09:34:39;;;;;;;2.58;2.38;;;21.30;46.60;;;25.32;30.92;101947.56;5114573;28;20071;-10
2021/10/11 09:37:09;;;;;;;2.63;2.42;;;21.30;46.60;;;25.31;30.96;101948.53;5116362;28;20047;-11
2021/10/11 09:39:37;;;;;;;2.80;2.60;;;21.40;46.70;;;25.28;31.01;101936.19;5115781;28;20479;-11
2021/10/11 09:42:09;;;;;;;2.50;2.30;;;21.30;46.70;;;25.29;30.97;101945.97;5116179;28;20478;-14
2021/10/11 09:44:34;;;;;;;2.38;2.17;;;21.30;46.80;;;25.26;30.94;101930.09;5116129;28;20138;-10
2021/10/11 09:47:08;;;;;;;2.90;2.60;;;21.30;46.90;;;25.28;31.05;101940.72;5097651;28;20134;-10
2021/10/11 09:49:35;;;;;;;2.60;2.40;;;21.30;46.80;;;25.27;31.04;101939.81;5115726;28;20047;-11
2021/10/11 09:52:01;;;;;;;2.35;2.15;;;21.30;46.80;;;25.27;31.04;101930.94;5097242;28;20047;-28
2021/10/11 09:54:26;;;;;;;2.90;2.70;;;21.30;46.80;;;25.26;31.02;101930.09;5115882;28;20050;-10
2021/10/11 09:56:53;;;;;;;2.70;2.50;;;21.20;46.80;;;25.28;31.01;101930.84;5115322;28;20100;-10
2021/10/11 09:59:19;;;;;;;2.60;2.40;;;21.30;46.90;;;25.27;31.04;101931.78;5115846;28;20044;-10
2021/10/11 10:01:47;;;;;;;3.15;2.63;;;21.30;46.90;;;25.30;30.96;101936.97;5114731;28;20294;-10
2021/10/11 10:04:17;;;;;;;3.60;2.65;;;21.30;46.70;;;25.28;30.94;101920.13;5114365;28;20046;-11
2021/10/11 10:06:46;;;;;;;1.70;1.60;;;21.40;46.60;;;25.32;30.96;101924.31;5114786;28;20069;-8
2021/10/11 10:09:14;;;;;;;2.63;2.42;;;21.40;46.50;;;25.31;30.91;101925.31;5114837;28;20615;-11
2021/10/11 10:11:41;;;;;;;3.08;2.55;;;21.50;46.40;;;25.27;31.13;101922.91;5096275;28;20488;-8
2021/10/11 10:14:18;;;;;;;3.92;2.22;;;21.50;46.30;;;25.28;31.06;101917.47;5114005;28;20471;-8
2021/10/11 10:16:54;;;;;;;4.35;2.92;;;21.50;46.30;;;25.29;30.99;101918.31;5113410;28;20143;-10